createdAt,value
2018-07-12T00:02:25.794Z,17.50
2018-07-12T00:05:58.057Z,17.60
2018-07-12T00:09:30.317Z,17.60
2018-07-12T00:13:02.560Z,17.70
2018-07-12T00:16:34.830Z,17.60
2018-07-12T00:20:07.088Z,17.70
2018-07-12T00:23:39.337Z,17.70
2018-07-12T00:27:11.581Z,17.60
2018-07-12T00:30:43.816Z,17.60
2018-07-12T00:34:16.075Z,17.70
2018-07-12T00:37:48.429Z,17.70
2018-07-12T00:41:20.672Z,17.70
2018-07-12T00:44:52.941Z,17.70
2018-07-12T00:48:25.209Z,17.70
2018-07-12T00:51:57.467Z,17.70
2018-07-12T00:55:29.741Z,17.70
2018-07-12T00:59:02.025Z,17.70
2018-07-12T01:02:34.277Z,17.80
2018-07-12T01:06:06.521Z,17.80
2018-07-12T01:09:38.813Z,17.80
2018-07-12T01:13:11.078Z,17.80
2018-07-12T01:16:43.329Z,17.70
2018-07-12T01:20:15.604Z,17.70
2018-07-12T01:23:47.865Z,17.70
2018-07-12T01:27:20.109Z,17.70
2018-07-12T01:30:52.352Z,17.70
2018-07-12T01:34:24.605Z,17.80
2018-07-12T01:37:56.869Z,17.80
2018-07-12T01:41:29.137Z,17.80
2018-07-12T01:45:01.406Z,17.80
2018-07-12T01:48:33.720Z,17.80
2018-07-12T01:52:05.985Z,17.80
2018-07-12T01:55:38.273Z,17.80
2018-07-12T01:59:10.526Z,17.80
2018-07-12T02:02:42.788Z,17.80
2018-07-12T02:06:15.055Z,17.70
2018-07-12T02:09:47.312Z,17.70
2018-07-12T02:13:19.583Z,17.70
2018-07-12T02:16:51.873Z,17.70
2018-07-12T02:20:24.092Z,17.80
2018-07-12T02:23:56.340Z,17.70
2018-07-12T02:27:28.867Z,17.70
2018-07-12T02:31:01.084Z,17.70
2018-07-12T02:34:33.357Z,17.70
2018-07-12T02:41:38.101Z,17.60
2018-07-12T02:48:42.859Z,17.50
2018-07-12T02:55:48.074Z,17.50
2018-07-12T02:59:20.334Z,17.50
2018-07-12T03:02:52.596Z,17.50
2018-07-12T03:09:57.369Z,17.50
2018-07-12T03:13:29.625Z,17.40
2018-07-12T03:20:34.377Z,17.40
2018-07-12T03:27:39.120Z,17.30
2018-07-12T03:31:11.377Z,17.40
2018-07-12T03:34:43.640Z,17.40
2018-07-12T03:38:15.950Z,17.40
2018-07-12T03:41:48.210Z,17.40
2018-07-12T03:45:20.486Z,17.30
2018-07-12T03:48:52.755Z,17.30
2018-07-12T03:52:25.031Z,17.30
2018-07-12T03:55:57.294Z,17.30
2018-07-12T03:59:29.536Z,17.30
2018-07-12T04:06:34.288Z,17.40
2018-07-12T04:13:40.595Z,17.40
2018-07-12T04:17:17.341Z,17.40
2018-07-12T04:20:49.592Z,17.30
2018-07-12T04:24:21.949Z,17.40
2018-07-12T04:27:54.323Z,17.50
2018-07-12T04:34:59.240Z,17.50
2018-07-12T04:38:31.507Z,17.60
2018-07-12T04:42:03.922Z,17.60
2018-07-12T04:45:36.171Z,17.50
2018-07-12T04:49:08.408Z,17.50
2018-07-12T04:52:40.649Z,17.50
2018-07-12T04:56:13.065Z,17.40
2018-07-12T04:59:45.291Z,17.30
2018-07-12T05:03:17.565Z,17.30
2018-07-12T05:06:49.812Z,17.30
2018-07-12T05:10:22.054Z,17.30
2018-07-12T05:13:54.733Z,17.30
2018-07-12T05:20:59.812Z,17.40
2018-07-12T05:24:32.119Z,17.40
2018-07-12T05:28:04.489Z,17.30
2018-07-12T05:31:36.726Z,17.40
2018-07-12T05:35:09.018Z,17.50
2018-07-12T05:38:42.285Z,17.70
2018-07-12T05:42:15.561Z,17.80
2018-07-12T05:45:48.973Z,18.00
2018-07-12T05:49:22.236Z,18.10
2018-07-12T05:52:55.481Z,18.10
2018-07-12T05:56:28.748Z,18.00
2018-07-12T06:00:01.982Z,17.90
2018-07-12T06:03:35.257Z,17.80
2018-07-12T06:07:08.568Z,17.80
2018-07-12T06:10:41.829Z,17.80
2018-07-12T06:14:15.426Z,18.00
2018-07-12T06:17:48.696Z,18.10
2018-07-12T06:21:22.024Z,18.20
2018-07-12T06:24:55.299Z,18.20
2018-07-12T06:32:01.598Z,18.40
2018-07-12T06:35:34.876Z,18.60
2018-07-12T06:39:09.669Z,18.60
2018-07-12T06:42:42.994Z,18.50
2018-07-12T06:46:16.208Z,18.50
2018-07-12T06:49:49.465Z,18.50
2018-07-12T06:53:22.746Z,18.60
2018-07-12T06:56:56.192Z,18.80
2018-07-12T07:00:29.494Z,18.90
2018-07-12T07:04:02.743Z,19.00
2018-07-12T07:07:35.997Z,19.10
2018-07-12T07:11:09.374Z,19.30
2018-07-12T07:14:42.673Z,19.60
2018-07-12T07:18:15.892Z,19.90
2018-07-12T07:21:49.140Z,20.00
2018-07-12T07:25:22.396Z,20.00
2018-07-12T07:28:55.697Z,19.90
2018-07-12T07:32:28.983Z,19.80
2018-07-12T07:39:35.200Z,19.90
2018-07-12T07:43:08.552Z,20.10
2018-07-12T07:46:41.731Z,20.00
2018-07-12T07:50:15.017Z,20.00
2018-07-12T07:53:48.275Z,19.90
2018-07-12T07:57:21.537Z,19.90
2018-07-12T08:00:54.778Z,19.90
2018-07-12T08:04:28.017Z,20.20
2018-07-12T08:08:01.265Z,20.40
2018-07-12T08:11:34.548Z,20.60
2018-07-12T08:15:07.806Z,20.50
2018-07-12T08:18:41.116Z,20.50
2018-07-12T08:22:14.388Z,20.40
2018-07-12T08:25:47.627Z,20.40
2018-07-12T08:29:20.888Z,20.40
2018-07-12T08:32:54.148Z,20.50
2018-07-12T08:36:27.417Z,20.80
2018-07-12T08:40:00.669Z,21.00
2018-07-12T08:43:33.940Z,21.20
2018-07-12T08:47:07.188Z,21.30
2018-07-12T08:50:40.465Z,21.10
2018-07-12T08:57:47.190Z,20.60
2018-07-12T09:01:20.464Z,20.60
2018-07-12T09:04:54.417Z,20.90
2018-07-12T09:08:27.706Z,21.20
2018-07-12T09:12:00.978Z,21.40
2018-07-12T09:15:34.273Z,21.60
2018-07-12T09:19:07.503Z,21.50
2018-07-12T09:22:41.025Z,21.50
2018-07-12T09:26:14.300Z,21.40
2018-07-12T09:29:47.530Z,21.40
2018-07-12T09:33:20.780Z,21.50
2018-07-12T09:36:54.631Z,21.50
2018-07-12T09:40:27.913Z,21.60
2018-07-12T09:47:34.286Z,21.90
2018-07-12T09:51:08.068Z,22.00
2018-07-12T09:54:41.346Z,22.30
2018-07-12T09:58:26.817Z,22.40
2018-07-12T10:02:05.390Z,22.40
2018-07-12T10:05:43.842Z,22.40
2018-07-12T10:09:22.372Z,22.50
2018-07-12T10:13:01.095Z,22.70
2018-07-12T10:20:12.834Z,22.70
2018-07-12T10:23:46.136Z,22.60
2018-07-12T10:27:19.411Z,22.60
2018-07-12T10:34:25.633Z,22.50
2018-07-12T10:37:58.876Z,22.50
2018-07-12T10:41:32.128Z,22.60
2018-07-12T10:45:05.422Z,22.60
2018-07-12T10:48:38.673Z,22.70
2018-07-12T10:52:11.929Z,22.70
2018-07-12T10:55:45.213Z,22.80
2018-07-12T10:59:18.434Z,23.10
2018-07-12T11:02:51.688Z,23.10
2018-07-12T11:06:24.931Z,23.10
2018-07-12T11:09:58.180Z,23.10
2018-07-12T11:13:42.701Z,23.10
2018-07-12T11:17:15.933Z,23.20
2018-07-12T11:20:49.176Z,23.30
2018-07-12T11:24:22.449Z,23.40
2018-07-12T11:27:55.725Z,23.60
2018-07-12T11:31:28.965Z,23.90
2018-07-12T11:35:02.216Z,24.00
2018-07-12T11:38:36.920Z,24.00
2018-07-12T11:42:10.176Z,24.10
2018-07-12T11:45:43.449Z,24.40
2018-07-12T11:49:16.696Z,24.40
2018-07-12T11:52:49.991Z,24.60
2018-07-12T11:56:23.222Z,24.80
2018-07-12T11:59:56.508Z,24.90
2018-07-12T12:07:03.036Z,24.80
2018-07-12T12:10:36.296Z,24.60
2018-07-12T12:14:09.558Z,24.60
2018-07-12T12:17:42.821Z,24.50
2018-07-12T12:21:16.070Z,24.50
2018-07-12T12:24:49.338Z,24.30
2018-07-12T12:28:22.600Z,24.30
2018-07-12T12:31:55.852Z,24.20
2018-07-12T12:35:29.099Z,24.20
2018-07-12T12:39:02.334Z,24.20
2018-07-12T12:42:35.589Z,24.20
2018-07-12T12:46:08.844Z,24.30
2018-07-12T12:49:42.075Z,24.10
2018-07-12T12:53:15.344Z,24.00
2018-07-12T12:56:48.584Z,24.00
2018-07-12T13:00:21.842Z,24.00
2018-07-12T13:03:55.098Z,24.00
2018-07-12T13:11:01.329Z,24.20
2018-07-12T13:14:34.737Z,24.40
2018-07-12T13:18:07.888Z,24.60
2018-07-12T13:21:41.194Z,24.80
2018-07-12T13:25:16.874Z,24.80
2018-07-12T13:32:30.065Z,25.00
2018-07-12T13:36:05.917Z,25.10
2018-07-12T13:39:39.252Z,25.20
2018-07-12T13:43:12.531Z,25.30
2018-07-12T13:46:56.083Z,25.40
2018-07-12T13:50:31.282Z,25.60
2018-07-12T13:54:05.733Z,25.90
2018-07-12T13:57:40.007Z,26.30
2018-07-12T14:01:13.414Z,26.60
2018-07-12T14:04:53.122Z,26.80
2018-07-12T14:12:01.623Z,27.50
2018-07-12T14:15:37.674Z,27.80
2018-07-12T14:19:12.767Z,27.80
2018-07-12T14:22:47.224Z,27.60
2018-07-12T14:26:22.657Z,27.30
2018-07-12T14:29:56.461Z,27.30
2018-07-12T14:33:31.144Z,27.40
2018-07-12T14:37:04.589Z,27.50
2018-07-12T14:40:40.024Z,27.80
2018-07-12T14:44:14.301Z,27.70
2018-07-12T14:47:48.385Z,27.60
2018-07-12T14:51:22.096Z,27.50
2018-07-12T14:54:56.123Z,27.40
2018-07-12T14:58:30.482Z,27.50
2018-07-12T15:02:04.331Z,27.90
2018-07-12T15:05:38.498Z,28.00
2018-07-12T15:09:12.471Z,27.80
2018-07-12T15:12:46.059Z,27.50
2018-07-12T15:16:20.295Z,27.20
2018-07-12T15:19:54.593Z,27.10
2018-07-12T15:23:28.098Z,27.00
2018-07-12T15:27:01.390Z,27.40
2018-07-12T15:30:34.656Z,28.00
2018-07-12T15:34:07.937Z,28.30
2018-07-12T15:37:41.212Z,28.40
2018-07-12T15:41:14.461Z,28.30
2018-07-12T15:44:47.936Z,28.10
2018-07-12T15:51:54.202Z,28.00
2018-07-12T15:55:27.467Z,28.30
2018-07-12T15:59:00.728Z,28.60
2018-07-12T16:02:33.965Z,28.50
2018-07-12T16:06:07.226Z,28.30
2018-07-12T16:09:40.535Z,28.00
2018-07-12T16:13:13.817Z,27.70
2018-07-12T16:16:47.241Z,27.40
2018-07-12T16:20:20.488Z,27.30
2018-07-12T16:23:53.733Z,27.60
2018-07-12T16:27:26.999Z,28.20
2018-07-12T16:31:00.445Z,28.50
2018-07-12T16:34:33.737Z,28.40
2018-07-12T16:38:06.978Z,28.00
2018-07-12T16:41:40.211Z,27.50
2018-07-12T16:45:13.583Z,27.00
2018-07-12T16:48:47.173Z,26.60
2018-07-12T16:52:20.432Z,26.30
2018-07-12T16:55:53.681Z,26.10
2018-07-12T16:59:26.972Z,25.90
2018-07-12T17:03:00.285Z,25.80
2018-07-12T17:06:33.547Z,25.70
2018-07-12T17:10:06.815Z,25.50
2018-07-12T17:13:40.081Z,25.30
2018-07-12T17:17:13.308Z,25.20
2018-07-12T17:20:46.568Z,25.10
2018-07-12T17:24:19.803Z,25.00
2018-07-12T17:27:53.059Z,25.00
2018-07-12T17:31:26.312Z,24.90
2018-07-12T17:34:59.573Z,24.90
2018-07-12T17:38:32.833Z,24.90
2018-07-12T17:42:06.425Z,24.90
2018-07-12T17:45:39.897Z,24.90
2018-07-12T17:49:13.184Z,24.90
2018-07-12T17:52:48.672Z,24.80
2018-07-12T17:56:22.241Z,24.80
2018-07-12T17:59:55.774Z,24.70
2018-07-12T18:03:29.022Z,24.60
2018-07-12T18:10:35.280Z,24.50
2018-07-12T18:14:08.528Z,24.50
2018-07-12T18:21:14.764Z,24.30
2018-07-12T18:24:48.166Z,24.40
2018-07-12T18:28:21.460Z,24.40
2018-07-12T18:31:55.489Z,24.50
2018-07-12T18:35:28.760Z,24.50
2018-07-12T18:39:02.052Z,24.60
2018-07-12T18:42:35.372Z,24.60
2018-07-12T18:46:09.476Z,24.60
2018-07-12T18:49:42.713Z,24.80
2018-07-12T18:53:15.984Z,24.60
2018-07-12T18:56:49.244Z,24.70
2018-07-12T19:00:22.492Z,24.50
2018-07-12T19:03:55.762Z,24.40
2018-07-12T19:07:29.201Z,24.30
2018-07-12T19:11:02.439Z,24.10
2018-07-12T19:14:35.689Z,24.00
2018-07-12T19:18:09.036Z,23.90
2018-07-12T19:21:42.607Z,23.70
2018-07-12T19:25:15.853Z,23.60
2018-07-12T19:28:49.121Z,23.50
2018-07-12T19:32:22.402Z,23.40
2018-07-12T19:35:55.860Z,23.30
2018-07-12T19:39:29.361Z,23.20
2018-07-12T19:46:58.653Z,23.20
2018-07-12T19:50:31.893Z,23.20
2018-07-12T19:54:05.189Z,23.10
2018-07-12T19:57:38.498Z,23.10
2018-07-12T20:01:12.461Z,23.10
2018-07-12T20:04:45.774Z,23.10
2018-07-12T20:08:19.117Z,23.10
2018-07-12T20:11:52.423Z,23.10
2018-07-12T20:15:25.691Z,23.00
2018-07-12T20:18:58.929Z,23.00
2018-07-12T20:22:32.170Z,23.00
2018-07-12T20:26:05.565Z,23.00
2018-07-12T20:29:38.829Z,22.90
2018-07-12T20:33:12.065Z,22.90
2018-07-12T20:36:45.361Z,22.90
2018-07-12T20:43:51.961Z,22.90
2018-07-12T20:47:26.446Z,22.90
2018-07-12T20:50:59.706Z,22.90
2018-07-12T20:54:33.003Z,22.80
2018-07-12T20:58:06.313Z,22.90
2018-07-12T21:01:39.593Z,22.90
2018-07-12T21:05:12.888Z,22.80
2018-07-12T21:12:19.177Z,22.80
2018-07-12T21:15:52.408Z,22.80
2018-07-12T21:19:25.735Z,22.70
2018-07-12T21:22:58.972Z,22.70
2018-07-12T21:26:32.204Z,22.60
2018-07-12T21:30:08.362Z,22.50
2018-07-12T21:33:41.759Z,22.50
2018-07-12T21:37:14.879Z,22.50
2018-07-12T21:40:48.232Z,22.50
2018-07-12T21:44:21.507Z,22.40
2018-07-12T21:47:54.707Z,22.30
2018-07-12T21:51:27.949Z,22.20
2018-07-12T21:55:01.198Z,22.10
2018-07-12T21:58:34.429Z,22.00
2018-07-12T22:02:07.731Z,22.00
2018-07-12T22:05:40.976Z,21.90
2018-07-12T22:09:14.233Z,21.90
2018-07-12T22:12:47.483Z,21.90
2018-07-12T22:16:20.737Z,21.90
2018-07-12T22:19:53.977Z,21.90
2018-07-12T22:23:27.228Z,21.90
2018-07-12T22:27:00.501Z,21.90
2018-07-12T22:30:33.826Z,21.90
2018-07-12T22:34:07.017Z,22.00
2018-07-12T22:37:40.256Z,22.00
2018-07-12T22:41:13.507Z,22.00
2018-07-12T22:44:46.829Z,22.10
2018-07-12T22:48:20.193Z,22.10
2018-07-12T22:51:53.446Z,22.10
2018-07-12T22:58:59.677Z,22.10
2018-07-12T23:02:32.905Z,22.10
2018-07-12T23:06:06.165Z,22.00
2018-07-12T23:09:39.429Z,22.00
2018-07-12T23:13:12.669Z,22.00
2018-07-12T23:16:45.914Z,21.90
2018-07-12T23:20:19.172Z,21.90
2018-07-12T23:23:52.428Z,21.80
2018-07-12T23:27:25.673Z,21.80
2018-07-12T23:30:59.212Z,21.60
2018-07-12T23:34:32.460Z,21.50
2018-07-12T23:38:05.689Z,21.40
2018-07-12T23:41:38.917Z,21.30
2018-07-12T23:45:13.259Z,21.20
2018-07-12T23:48:46.512Z,21.10
2018-07-12T23:52:19.755Z,21.00
2018-07-12T23:55:52.987Z,21.00
2018-07-12T23:59:26.220Z,21.00
